createdAt,value
2022-11-25T00:01:10.065Z,99320.19
2022-11-25T00:04:00.138Z,99328.84
2022-11-25T00:06:51.034Z,99327.31
2022-11-25T00:09:40.361Z,99339.00
2022-11-25T00:12:29.807Z,99343.22
2022-11-25T00:15:19.152Z,99350.44
2022-11-25T00:18:08.734Z,99349.91
2022-11-25T00:20:58.354Z,99365.00
2022-11-25T00:23:53.419Z,99374.03
2022-11-25T00:26:42.794Z,99361.69
2022-11-25T00:29:32.584Z,99380.38
2022-11-25T00:32:22.076Z,99391.06
2022-11-25T00:35:11.376Z,99416.41
2022-11-25T00:38:00.904Z,99407.97
2022-11-25T00:41:15.218Z,99426.38
2022-11-25T00:44:22.378Z,99431.16
2022-11-25T00:47:15.299Z,99447.38
2022-11-25T00:50:05.709Z,99453.97
2022-11-25T00:52:55.172Z,99448.19
2022-11-25T00:56:02.082Z,99460.06
2022-11-25T00:58:55.395Z,99460.91
2022-11-25T01:01:45.001Z,99486.56
2022-11-25T01:04:35.152Z,99476.00
2022-11-25T01:07:25.198Z,99493.81
2022-11-25T01:10:14.555Z,99493.81
2022-11-25T01:13:03.968Z,99506.97
2022-11-25T01:15:54.690Z,99513.50
2022-11-25T01:18:44.088Z,99526.06
2022-11-25T01:21:35.513Z,99529.56
2022-11-25T01:24:26.458Z,99530.66
2022-11-25T01:27:16.484Z,99547.00
2022-11-25T01:30:07.222Z,99546.84
2022-11-25T01:32:57.860Z,99554.06
2022-11-25T01:35:49.180Z,99563.38
2022-11-25T01:38:38.630Z,99578.38
2022-11-25T01:41:30.190Z,99584.00
2022-11-25T01:44:25.869Z,99585.28
2022-11-25T01:47:20.101Z,99591.19
2022-11-25T01:50:14.344Z,99597.94
2022-11-25T01:53:11.879Z,99600.19
2022-11-25T01:56:04.882Z,99599.25
2022-11-25T01:58:56.902Z,99612.69
2022-11-25T02:01:46.361Z,99619.81
2022-11-25T02:04:38.867Z,99632.75
2022-11-25T02:07:34.059Z,99628.28
2022-11-25T02:10:30.723Z,99638.06
2022-11-25T02:13:20.628Z,99651.22
2022-11-25T02:16:10.287Z,99651.41
2022-11-25T02:18:59.690Z,99663.25
2022-11-25T02:21:57.855Z,99669.81
2022-11-25T02:24:52.918Z,99674.31
2022-11-25T02:27:47.565Z,99684.09
2022-11-25T02:30:39.242Z,99690.63
2022-11-25T02:33:29.384Z,99698.97
2022-11-25T02:36:23.865Z,99698.16
2022-11-25T02:39:13.999Z,99699.75
2022-11-25T02:42:05.173Z,99717.25
2022-11-25T02:44:55.885Z,99724.63
2022-11-25T02:47:46.600Z,99712.94
2022-11-25T02:50:35.882Z,99728.00
2022-11-25T02:53:25.158Z,99742.94
2022-11-25T02:56:17.033Z,99734.91
2022-11-25T02:59:06.566Z,99740.00
2022-11-25T03:01:57.326Z,99727.03
2022-11-25T03:04:48.535Z,99746.44
2022-11-25T03:07:37.975Z,99759.91
2022-11-25T03:10:27.874Z,99764.06
2022-11-25T03:13:17.264Z,99769.53
2022-11-25T03:16:07.411Z,99778.69
2022-11-25T03:18:58.075Z,99773.53
2022-11-25T03:21:47.303Z,99779.44
2022-11-25T03:24:36.777Z,99783.63
2022-11-25T03:27:30.147Z,99791.66
2022-11-25T03:30:22.844Z,99813.91
2022-11-25T03:33:14.926Z,99800.28
2022-11-25T03:36:06.284Z,99813.13
2022-11-25T03:38:55.924Z,99821.78
2022-11-25T03:41:45.928Z,99829.63
2022-11-25T03:44:36.011Z,99842.28
2022-11-25T03:47:25.755Z,99844.69
2022-11-25T03:50:17.497Z,99850.78
2022-11-25T03:53:10.324Z,99858.63
2022-11-25T03:55:59.718Z,99862.50
2022-11-25T03:58:48.987Z,99860.22
2022-11-25T04:01:44.004Z,99877.84
2022-11-25T04:04:34.254Z,99859.25
2022-11-25T04:07:24.030Z,99870.91
2022-11-25T04:10:15.347Z,99894.19
2022-11-25T04:13:04.801Z,99906.50
2022-11-25T04:15:59.437Z,99906.19
2022-11-25T04:18:49.483Z,99903.47
2022-11-25T04:21:39.028Z,99929.09
2022-11-25T04:24:28.633Z,99936.44
2022-11-25T04:27:20.545Z,99935.81
2022-11-25T04:30:12.565Z,99922.97
2022-11-25T04:33:04.205Z,99943.81
2022-11-25T04:35:53.782Z,99940.09
2022-11-25T04:38:43.375Z,99950.19
2022-11-25T04:41:32.886Z,99950.03
2022-11-25T04:44:24.309Z,99954.72
2022-11-25T04:47:14.596Z,99969.06
2022-11-25T04:50:04.300Z,99973.84
2022-11-25T04:52:55.566Z,99981.16
2022-11-25T04:55:45.995Z,99970.22
2022-11-25T04:58:55.392Z,99986.59
2022-11-25T05:01:46.131Z,99991.34
2022-11-25T05:04:53.990Z,99991.69
2022-11-25T05:07:44.406Z,99991.53
2022-11-25T05:10:34.891Z,99994.88
2022-11-25T05:13:24.219Z,99993.13
2022-11-25T05:16:13.931Z,100010.75
2022-11-25T05:19:05.265Z,99999.22
2022-11-25T05:21:54.943Z,100019.72
2022-11-25T05:24:44.434Z,100029.56
2022-11-25T05:27:34.716Z,100025.59
2022-11-25T05:30:29.646Z,100033.75
2022-11-25T05:33:19.268Z,100036.97
2022-11-25T05:36:11.847Z,100012.47
2022-11-25T05:39:09.329Z,100038.09
2022-11-25T05:42:17.258Z,100066.44
2022-11-25T05:45:09.131Z,100067.06
2022-11-25T05:47:59.110Z,100078.94
2022-11-25T05:50:50.580Z,100081.28
2022-11-25T05:53:44.369Z,100090.56
2022-11-25T05:56:33.794Z,100095.53
2022-11-25T05:59:41.494Z,100094.41
2022-11-25T06:02:41.556Z,100109.00
2022-11-25T06:05:36.608Z,100088.09
2022-11-25T06:08:26.632Z,100134.03
2022-11-25T06:11:19.130Z,100137.72
2022-11-25T06:14:08.912Z,100143.97
2022-11-25T06:16:58.179Z,100158.84
2022-11-25T06:20:11.554Z,100157.59
2022-11-25T06:23:01.872Z,100162.88
2022-11-25T06:25:55.080Z,100176.06
2022-11-25T06:28:48.653Z,100183.41
2022-11-25T06:31:37.984Z,100189.69
2022-11-25T06:34:47.557Z,100181.69
2022-11-25T06:37:49.483Z,100176.28
2022-11-25T06:40:38.776Z,100190.97
2022-11-25T06:43:28.165Z,100188.25
2022-11-25T06:46:25.215Z,100201.38
2022-11-25T06:49:15.679Z,100203.75
2022-11-25T06:52:05.129Z,100214.44
2022-11-25T06:54:54.557Z,100225.63
2022-11-25T06:57:44.191Z,100223.94
2022-11-25T07:00:33.502Z,100237.03
2022-11-25T07:03:24.271Z,100232.81
2022-11-25T07:06:14.581Z,100225.97
2022-11-25T07:09:04.620Z,100236.44
2022-11-25T07:11:54.062Z,100241.06
2022-11-25T07:14:43.400Z,100245.81
2022-11-25T07:17:33.724Z,100249.53
2022-11-25T07:20:28.109Z,100233.19
2022-11-25T07:23:17.415Z,100254.50
2022-11-25T07:26:09.530Z,100257.91
2022-11-25T07:29:02.048Z,100262.16
2022-11-25T07:31:51.743Z,100264.69
2022-11-25T07:34:41.223Z,100262.28
2022-11-25T07:37:31.938Z,100260.56
2022-11-25T07:40:21.967Z,100270.34
2022-11-25T07:43:11.239Z,100286.59
2022-11-25T07:46:12.047Z,100272.84
2022-11-25T07:49:03.730Z,100283.75
2022-11-25T07:51:55.170Z,100289.31
2022-11-25T07:54:45.943Z,100296.16
2022-11-25T07:57:35.289Z,100309.06
2022-11-25T08:00:24.939Z,100308.25
2022-11-25T08:03:14.329Z,100318.72
2022-11-25T08:06:04.301Z,100329.00
2022-11-25T08:08:56.009Z,100329.41
2022-11-25T08:11:48.574Z,100327.59
2022-11-25T08:14:38.392Z,100352.53
2022-11-25T08:17:27.737Z,100336.53
2022-11-25T08:20:17.567Z,100358.22
2022-11-25T08:23:07.401Z,100351.97
2022-11-25T08:25:57.002Z,100361.97
2022-11-25T08:28:48.432Z,100367.59
2022-11-25T08:31:40.032Z,100376.59
2022-11-25T08:34:29.406Z,100380.56
2022-11-25T08:37:23.552Z,100372.81
2022-11-25T08:40:14.139Z,100388.34
2022-11-25T08:43:04.713Z,100386.31
2022-11-25T08:45:58.716Z,100400.22
2022-11-25T08:48:48.258Z,100407.56
2022-11-25T08:51:40.198Z,100425.53
2022-11-25T08:54:29.458Z,100407.06
2022-11-25T08:57:18.877Z,100430.47
2022-11-25T09:00:10.064Z,100447.31
2022-11-25T09:03:04.152Z,100429.78
2022-11-25T09:05:55.602Z,100434.00
2022-11-25T09:08:45.892Z,100441.56
2022-11-25T09:11:35.513Z,100467.84
2022-11-25T09:14:24.964Z,100456.69
2022-11-25T09:17:16.489Z,100457.19
2022-11-25T09:20:15.221Z,100447.06
2022-11-25T09:23:06.039Z,100479.84
2022-11-25T09:25:57.172Z,100485.78
2022-11-25T09:28:46.427Z,100504.91
2022-11-25T09:31:36.838Z,100484.59
2022-11-25T09:34:26.271Z,100499.34
2022-11-25T09:37:17.072Z,100516.53
2022-11-25T09:40:10.161Z,100507.31
2022-11-25T09:43:36.814Z,100535.44
2022-11-25T09:46:46.331Z,100527.34
2022-11-25T09:49:58.677Z,100551.31
2022-11-25T09:53:00.638Z,100537.34
2022-11-25T09:55:55.924Z,100540.75
2022-11-25T09:58:54.752Z,100571.78
2022-11-25T10:01:51.123Z,100586.75
2022-11-25T10:04:48.381Z,100585.00
2022-11-25T10:07:44.355Z,100602.16
2022-11-25T10:10:44.932Z,100604.09
2022-11-25T10:13:46.160Z,100598.72
2022-11-25T10:16:51.282Z,100615.94
2022-11-25T10:19:54.261Z,100635.91
2022-11-25T10:22:46.705Z,100625.81
2022-11-25T10:25:42.874Z,100638.75
2022-11-25T10:28:36.585Z,100632.88
2022-11-25T10:31:33.837Z,100649.41
2022-11-25T10:34:35.696Z,100648.47
2022-11-25T10:37:31.994Z,100649.16
2022-11-25T10:40:21.363Z,100658.66
2022-11-25T10:43:14.942Z,100669.47
2022-11-25T10:46:43.700Z,100670.41
2022-11-25T10:49:51.610Z,100690.47
2022-11-25T10:52:47.999Z,100679.22
2022-11-25T10:55:37.674Z,100689.03
2022-11-25T10:58:35.762Z,100685.22
2022-11-25T11:01:26.367Z,100686.03
2022-11-25T11:04:18.492Z,100684.34
2022-11-25T11:07:10.982Z,100691.75
2022-11-25T11:10:21.662Z,100705.91
2022-11-25T11:13:25.613Z,100695.47
2022-11-25T11:16:31.005Z,100698.91
2022-11-25T11:19:24.943Z,100723.34
2022-11-25T11:22:19.353Z,100710.19
2022-11-25T11:25:27.168Z,100703.25
2022-11-25T11:28:40.122Z,100708.16
2022-11-25T11:31:36.526Z,100714.34
2022-11-25T11:35:03.247Z,100719.25
2022-11-25T11:37:58.087Z,100732.63
2022-11-25T11:40:55.206Z,100736.72
2022-11-25T11:44:02.177Z,100726.78
2022-11-25T11:47:20.670Z,100739.06
2022-11-25T11:50:28.594Z,100738.50
2022-11-25T11:53:31.459Z,100747.00
2022-11-25T11:56:35.680Z,100739.22
2022-11-25T11:59:56.904Z,100762.06
2022-11-25T12:03:00.675Z,100744.97
2022-11-25T12:05:54.912Z,100760.53
2022-11-25T12:08:50.989Z,100776.25
2022-11-25T12:11:46.101Z,100778.31
2022-11-25T12:14:43.541Z,100794.75
2022-11-25T12:17:41.130Z,100791.31
2022-11-25T12:20:40.788Z,100792.63
2022-11-25T12:23:45.441Z,100765.13
2022-11-25T12:26:45.857Z,100813.75
2022-11-25T12:29:42.645Z,100811.69
2022-11-25T12:32:58.347Z,100812.00
2022-11-25T12:36:01.031Z,100818.16
2022-11-25T12:39:04.310Z,100820.09
2022-11-25T12:41:58.921Z,100839.75
2022-11-25T12:44:59.496Z,100835.56
2022-11-25T12:47:48.885Z,100836.66
2022-11-25T12:50:54.991Z,100838.91
2022-11-25T12:53:56.471Z,100848.25
2022-11-25T12:57:18.681Z,100859.03
2022-11-25T13:00:40.628Z,100845.78
2022-11-25T13:03:57.732Z,100848.31
2022-11-25T13:07:30.132Z,100854.09
2022-11-25T13:10:47.905Z,100862.22
2022-11-25T13:13:55.454Z,100873.94
2022-11-25T13:16:50.493Z,100868.97
2022-11-25T13:19:40.539Z,100876.94
2022-11-25T13:22:30.228Z,100879.34
2022-11-25T13:25:29.272Z,100874.84
2022-11-25T13:28:32.881Z,100884.31
2022-11-25T13:31:25.570Z,100891.53
2022-11-25T13:34:34.938Z,100887.47
2022-11-25T13:37:40.159Z,100896.81
2022-11-25T13:40:39.611Z,100898.06
2022-11-25T13:43:29.050Z,100904.16
2022-11-25T13:46:33.984Z,100920.47
2022-11-25T13:49:35.489Z,100929.97
2022-11-25T13:52:40.511Z,100924.47
2022-11-25T13:55:37.278Z,100916.59
2022-11-25T13:58:29.675Z,100931.09
2022-11-25T14:01:30.003Z,100930.97
2022-11-25T14:04:33.980Z,100933.75
2022-11-25T14:07:38.413Z,100931.66
2022-11-25T14:10:46.329Z,100926.63
2022-11-25T14:14:00.038Z,100932.59
2022-11-25T14:17:08.301Z,100926.00
2022-11-25T14:20:15.264Z,100930.53
2022-11-25T14:23:54.643Z,100930.06
2022-11-25T14:26:50.437Z,100922.75
2022-11-25T14:29:46.768Z,100929.44
2022-11-25T14:32:44.157Z,100927.88
2022-11-25T14:35:45.357Z,100930.97
2022-11-25T14:38:44.864Z,100937.38
2022-11-25T14:41:40.070Z,100939.31
2022-11-25T14:44:39.926Z,100951.25
2022-11-25T14:47:37.603Z,100952.63
2022-11-25T14:50:36.063Z,100960.00
2022-11-25T14:53:26.648Z,100971.44
2022-11-25T14:56:18.347Z,100959.69
2022-11-25T14:59:11.109Z,100958.03
2022-11-25T15:02:02.412Z,100961.88
2022-11-25T15:04:52.574Z,100957.66
2022-11-25T15:07:44.538Z,100970.97
2022-11-25T15:10:44.105Z,100969.03
2022-11-25T15:13:38.957Z,100986.00
2022-11-25T15:16:34.780Z,100995.13
2022-11-25T15:19:33.379Z,101003.47
2022-11-25T15:22:24.790Z,101006.84
2022-11-25T15:25:18.996Z,101011.50
2022-11-25T15:28:17.870Z,101023.09
2022-11-25T15:31:14.181Z,101023.50
2022-11-25T15:34:06.678Z,101005.31
2022-11-25T15:36:57.488Z,101012.94
2022-11-25T15:39:47.338Z,101012.72
2022-11-25T15:42:36.741Z,101014.97
2022-11-25T15:45:28.685Z,101022.38
2022-11-25T15:48:24.679Z,101014.59
2022-11-25T15:51:35.250Z,101022.91
2022-11-25T15:54:29.752Z,101024.84
2022-11-25T15:57:22.524Z,101031.50
2022-11-25T16:00:18.337Z,101032.97
2022-11-25T16:03:21.169Z,101043.59
2022-11-25T16:06:22.978Z,101051.72
2022-11-25T16:09:25.346Z,101053.97
2022-11-25T16:12:19.153Z,101059.44
2022-11-25T16:15:18.506Z,101062.25
2022-11-25T16:18:38.526Z,101074.31
2022-11-25T16:21:25.707Z,101069.16
2022-11-25T16:24:47.394Z,101084.78
2022-11-25T16:27:39.449Z,101065.94
2022-11-25T16:30:29.791Z,101079.72
2022-11-25T16:33:19.783Z,101105.56
2022-11-25T16:36:10.411Z,101101.50
2022-11-25T16:38:59.745Z,101110.13
2022-11-25T16:42:01.610Z,101116.00
2022-11-25T16:44:53.737Z,101122.91
2022-11-25T16:47:43.037Z,101130.09
2022-11-25T16:50:32.423Z,101125.13
2022-11-25T16:53:21.733Z,101129.59
2022-11-25T16:56:15.699Z,101136.25
2022-11-25T16:59:05.954Z,101135.38
2022-11-25T17:01:57.203Z,101144.16
2022-11-25T17:04:47.194Z,101142.78
2022-11-25T17:07:36.662Z,101141.16
2022-11-25T17:10:28.197Z,101128.78
2022-11-25T17:13:23.327Z,101118.53
2022-11-25T17:16:19.304Z,101113.06
2022-11-25T17:19:17.189Z,101120.75
2022-11-25T17:22:17.383Z,101124.31
2022-11-25T17:25:07.706Z,101125.34
2022-11-25T17:27:57.933Z,101148.03
2022-11-25T17:30:49.770Z,101134.84
2022-11-25T17:33:42.410Z,101139.94
2022-11-25T17:36:33.422Z,101148.63
2022-11-25T17:39:24.210Z,101145.00
2022-11-25T17:42:16.103Z,101159.41
2022-11-25T17:45:13.001Z,101141.75
2022-11-25T17:48:02.358Z,101157.34
2022-11-25T17:50:51.669Z,101171.16
2022-11-25T17:53:43.530Z,101158.19
2022-11-25T17:56:32.973Z,101169.72
2022-11-25T17:59:27.832Z,101186.25
2022-11-25T18:02:20.251Z,101183.31
2022-11-25T18:05:16.922Z,101175.59
2022-11-25T18:08:06.417Z,101192.53
2022-11-25T18:10:57.781Z,101189.25
2022-11-25T18:13:48.584Z,101178.28
2022-11-25T18:16:37.935Z,101181.13
2022-11-25T18:19:27.445Z,101178.78
2022-11-25T18:22:19.539Z,101180.72
2022-11-25T18:25:11.429Z,101172.81
2022-11-25T18:28:04.764Z,101176.06
2022-11-25T18:30:57.281Z,101178.97
2022-11-25T18:33:46.775Z,101179.78
2022-11-25T18:36:36.019Z,101188.94
2022-11-25T18:39:25.244Z,101183.66
2022-11-25T18:42:26.520Z,101195.41
2022-11-25T18:45:21.522Z,101202.50
2022-11-25T18:48:17.078Z,101199.66
2022-11-25T18:51:07.302Z,101197.44
2022-11-25T18:53:56.556Z,101206.16
2022-11-25T18:56:47.813Z,101211.13
2022-11-25T18:59:38.466Z,101215.78
2022-11-25T19:02:29.186Z,101205.56
2022-11-25T19:05:21.945Z,101208.78
2022-11-25T19:08:11.301Z,101213.16
2022-11-25T19:11:00.641Z,101216.28
2022-11-25T19:13:53.403Z,101230.22
2022-11-25T19:16:43.764Z,101225.81
2022-11-25T19:19:37.750Z,101217.41
2022-11-25T19:22:27.082Z,101228.16
2022-11-25T19:25:17.531Z,101223.28
2022-11-25T19:28:06.934Z,101229.38
2022-11-25T19:31:03.303Z,101223.38
2022-11-25T19:33:53.452Z,101233.53
2022-11-25T19:36:44.211Z,101238.19
2022-11-25T19:39:37.632Z,101237.88
2022-11-25T19:42:28.471Z,101225.41
2022-11-25T19:45:20.191Z,101239.22
2022-11-25T19:48:15.436Z,101243.78
2022-11-25T19:51:04.869Z,101235.47
2022-11-25T19:53:55.596Z,101234.44
2022-11-25T19:56:45.534Z,101248.34
2022-11-25T19:59:34.858Z,101242.16
2022-11-25T20:02:27.583Z,101236.03
2022-11-25T20:05:21.434Z,101245.38
2022-11-25T20:08:19.358Z,101250.56
2022-11-25T20:11:13.231Z,101252.97
2022-11-25T20:14:02.652Z,101245.16
2022-11-25T20:16:52.289Z,101253.38
2022-11-25T20:19:42.082Z,101238.78
2022-11-25T20:22:35.942Z,101242.31
2022-11-25T20:25:25.791Z,101247.91
2022-11-25T20:28:19.497Z,101256.84
2022-11-25T20:31:13.930Z,101248.38
2022-11-25T20:34:03.474Z,101246.03
2022-11-25T20:36:52.993Z,101245.13
2022-11-25T20:39:44.254Z,101249.72
2022-11-25T20:42:33.944Z,101253.28
2022-11-25T20:45:24.884Z,101248.59
2022-11-25T20:48:14.399Z,101253.88
2022-11-25T20:51:07.732Z,101247.59
2022-11-25T20:54:02.294Z,101250.63
2022-11-25T20:56:52.013Z,101252.66
2022-11-25T20:59:42.102Z,101242.81
2022-11-25T21:02:33.036Z,101231.94
2022-11-25T21:05:23.087Z,101244.25
2022-11-25T21:08:19.058Z,101244.31
2022-11-25T21:11:08.724Z,101255.59
2022-11-25T21:13:58.187Z,101260.88
2022-11-25T21:16:48.512Z,101257.09
2022-11-25T21:19:39.331Z,101264.50
2022-11-25T21:22:28.594Z,101247.56
2022-11-25T21:25:21.274Z,101241.47
2022-11-25T21:28:17.462Z,101240.84
2022-11-25T21:31:11.244Z,101243.91
2022-11-25T21:34:02.497Z,101226.25
2022-11-25T21:36:54.830Z,101245.44
2022-11-25T21:39:44.485Z,101234.34
2022-11-25T21:42:35.079Z,101215.78
2022-11-25T21:45:25.036Z,101219.00
2022-11-25T21:48:20.889Z,101215.66
2022-11-25T21:51:13.331Z,101230.63
2022-11-25T21:54:04.118Z,101221.81
2022-11-25T21:56:53.553Z,101213.59
2022-11-25T21:59:43.186Z,101226.00
2022-11-25T22:02:32.925Z,101249.06
2022-11-25T22:05:25.925Z,101239.22
2022-11-25T22:08:15.344Z,101229.13
2022-11-25T22:11:10.678Z,101212.19
2022-11-25T22:14:01.031Z,101231.56
2022-11-25T22:16:50.607Z,101213.81
2022-11-25T22:19:40.149Z,101212.41
2022-11-25T22:22:29.738Z,101221.91
2022-11-25T22:25:19.391Z,101229.19
2022-11-25T22:28:13.995Z,101226.78
2022-11-25T22:31:08.681Z,101220.59
2022-11-25T22:33:58.164Z,101223.66
2022-11-25T22:36:48.158Z,101216.41
2022-11-25T22:39:37.451Z,101215.31
2022-11-25T22:42:30.864Z,101226.78
2022-11-25T22:45:32.149Z,101215.59
2022-11-25T22:48:28.332Z,101221.47
2022-11-25T22:51:22.606Z,101226.88
2022-11-25T22:54:13.351Z,101237.13
2022-11-25T22:57:02.822Z,101223.34
2022-11-25T22:59:52.127Z,101222.28
2022-11-25T23:02:42.943Z,101222.28
2022-11-25T23:05:35.038Z,101209.94
2022-11-25T23:08:27.048Z,101203.31
2022-11-25T23:11:20.848Z,101200.97
2022-11-25T23:14:10.139Z,101210.81
2022-11-25T23:16:59.793Z,101216.69
2022-11-25T23:19:51.400Z,101225.72
2022-11-25T23:22:41.011Z,101222.91
2022-11-25T23:25:30.345Z,101232.50
2022-11-25T23:28:20.059Z,101228.03
2022-11-25T23:31:12.994Z,101232.88
2022-11-25T23:34:02.372Z,101240.25
2022-11-25T23:36:53.487Z,101241.44
2022-11-25T23:39:42.953Z,101233.03
2022-11-25T23:42:33.238Z,101235.25
2022-11-25T23:45:25.858Z,101256.59
2022-11-25T23:48:15.631Z,101243.34
2022-11-25T23:51:05.093Z,101253.84
2022-11-25T23:53:57.869Z,101242.88
2022-11-25T23:56:47.279Z,101234.16
2022-11-25T23:59:36.748Z,101232.53
